Meteo Giornale » Osservazioni meteo Stati Uniti (USA) » Portland-Troutdale
ore: 07:53 - Osservazioni Meteo Portland-Troutdale
Lat. 45° 33' N Lon. 122° 24' W Alt. 11 metri s.l.m.
17 °C
Coperto
Temp. 24 Ore
15 °C
30 °C
Nord
0 Km/h
Dew point 12 °C
Umidità 72 %
Visibilità 10 Km
Il sole sorge alle ore 06:31
Il sole tramonta alle ore 19:47
| Data e Ora | Cielo e Fenomeni | T °C | DP °C | Um. % | Pres. hPa | Vis. km | Vento km/h | |
|---|---|---|---|---|---|---|---|---|
| Oggi h: 07:53 | Coperto | 17 | 12 | 72 | 1011 | 10 | N 0 | |
| Oggi h: 07:16 | Coperto | 16 | 12 | 77 | 1011 | 10 | N 5.5 | |
| Oggi h: 07:01 | Coperto | 16 | 12 | 77 | 1011 | 10 | E/SE 7.4 | |
| Oggi h: 06:53 | Coperto | 16 | 12 | 77 | 1011 | 10 | N 5.5 | |
| Oggi h: 05:53 | Coperto | 16 | 12 | 77 | 1011 | 10 | E/SE 9.3 | |
| Oggi h: 05:20 | Molto Nuvoloso | 16 | 12 | 77 | 1011 | 10 | N 0 | |
| Oggi h: 04:53 | Molto Nuvoloso | 15 | 12 | 82 | 1011 | 10 | S/SE 7.4 | |
| Oggi h: 03:53 | Poco Nuvoloso | 16 | 12 | 77 | 1011 | 10 | N 5.5 | |
| Oggi h: 02:53 | Sereno | 16 | 12 | 77 | 1010 | 10 | S/SO 9.3 | |
| Oggi h: 01:53 | Sereno | 17 | 12 | 72 | 1010 | 10 | S 7.4 | |
| Oggi h: 00:53 | Sereno | 18 | 12 | 67 | 1009 | 10 | S/SO 20.3 | |
| Ieri h: 23:53 | Sereno | 20 | 12 | 59 | 1009 | 10 | S 11.1 | |
| Ieri h: 22:53 | Sereno | 22 | 12 | 53 | 1008 | 14 | S/SO 9.3 | |
| Ieri h: 21:53 | Foschia | 21 | 11 | 52 | 1007 | 5 | N 0 | |
| Ieri h: 20:53 | Foschia | 23 | 10 | 43 | 1007 | 5 | N 0 | |
| Ieri h: 19:53 | Foschia | 27 | 8 | 30 | 1006 | 5 | S/SO 11.1 | |
| Ieri h: 18:53 | Foschia | 29 | 11 | 32 | 1006 | 10 | S/SO 14.8 | |
| Ieri h: 17:53 | Sereno | 30 | 10 | 28 | 1006 | 10 | N 5.5 | |
| Ieri h: 16:53 | Sereno | 29 | 10 | 30 | 1006 | 10 | N 5.5 | |
| Ieri h: 15:53 | Sereno | 29 | 11 | 32 | 1006 | 10 | N 7.4 | |
| Ieri h: 14:53 | Sereno | 28 | 11 | 34 | 1007 | 10 | N 7.4 | |
| Ieri h: 13:53 | Sereno | 27 | 11 | 36 | 1007 | 10 | N 9.3 | |
| Ieri h: 12:53 | Sereno | 25 | 12 | 44 | 1008 | 10 | O/SO 14.8 | |
| Ieri h: 11:53 | Sereno | 23 | 12 | 49 | 1009 | 10 | N 7.4 | |
| Ieri h: 10:53 | Sereno | 21 | 11 | 52 | 1010 | 10 | N 5.5 | |
| Ieri h: 09:53 | Sereno | 19 | 12 | 63 | 1010 | 10 | N 5.5 | |
| Ieri h: 08:53 | Sereno | 16 | 11 | 72 | 1011 | 10 | N 7.4 | |



